DIMXM EKBI-EKBI

Flight info

Callsign DIMXM
Flight time 0h 8m
Altitude 2000
Route VFR ILS·Z/09
Aircraft BE58/L-VGDW/C

Departure

Time 2025-10-03 11:44
Airport Billund Airport (EKBI)

Arrival

Time 2025-10-03 11:52
Airport Billund Airport (EKBI)
Time Latitude Longitude Altitude Speed Heading
2025-10-03 11:43 55.80187 8.76224 1400 ft 123 kts 156°
2025-10-03 11:43 55.78641 8.77487 1409 ft 122 kts 158°
2025-10-03 11:44 55.77045 8.78612 1403 ft 124 kts 158°
2025-10-03 11:45 55.74669 8.80273 1428 ft 122 kts 158°
2025-10-03 11:45 55.73879 8.80839 1444 ft 121 kts 159°
2025-10-03 11:46 55.73018 8.84829 1430 ft 138 kts 94°
2025-10-03 11:46 55.73090 8.86529 1432 ft 138 kts 95°
2025-10-03 11:46 55.73154 8.88203 1450 ft 137 kts 94°
2025-10-03 11:47 55.73291 8.92202 1453 ft 140 kts 97°
2025-10-03 11:47 55.73443 8.96761 1445 ft 139 kts 96°
2025-10-03 11:48 55.73555 9.00184 1451 ft 139 kts 96°
2025-10-03 11:48 55.73665 9.03563 1311 ft 134 kts 95°
2025-10-03 11:49 55.73759 9.06297 1021 ft 99 kts 98°
2025-10-03 11:49 55.73826 9.08617 791 ft 93 kts 96°
2025-10-03 11:50 55.73900 9.10954 573 ft 97 kts 97°
2025-10-03 11:50 55.73943 9.12157 429 ft 96 kts 94°
2025-10-03 11:51 55.74010 9.14369 219 ft 67 kts 90°
2025-10-03 11:51 55.73915 9.14758 221 ft 0 kts 236°
2025-10-03 11:52 55.73907 9.14738 221 ft 9 kts 239°
2025-10-03 11:52 55.73837 9.14148 217 ft 28 kts 266°
2025-10-03 11:53 55.73790 9.13717 214 ft 7 kts 184°
2025-10-03 11:53 55.73759 9.13719 214 ft 6 kts 176°
2025-10-03 11:54 55.73746 9.13720 214 ft 0 kts 178°